Hordafor III — LLVC — position and weather

sailwx.info

Track history (hours):
 
Tides and Currents Weather Stations Pressure Air Temp Water Temp Dewpoint Dewpoint Depression Visibility Wind Speed Wind Dir Waves Ship Positions

Hordafor III

Last reported at 2014-Jul-30 05:33 UTC. Time now 2014-Jul-31 09:33 UTC.
Position N 57°36' E 009°59'.

Length 50 m; draft 6.2 m.

Type: Ship. MMSI: 258044000.

Date/timePositionNaut miles runAvg speedWind from/ knotsBaromVisibWave heightAir tempDewpointWater temp
2014-Jul-30 05:33N 57°36' E 009°59'0 0.0
2014-Jul-29 04:27N 57°36' E 009°59'0 0.0
2014-Jul-29 03:33N 57°36' E 009°59'0 0.0
2014-Jul-29 02:34N 57°36' E 009°59'0 0.0
2014-Jul-29 01:32N 57°36' E 009°59'0 0.0
2014-Jul-29 00:33N 57°36' E 009°59'0 0.0
2014-Jul-28 23:33N 57°36' E 009°59'0 0.0
2014-Jul-28 22:33N 57°36' E 009°59'0 0.0
2014-Jul-28 21:06N 57°36' E 009°59'0 0.1
2014-Jul-28 20:30N 57°36' E 009°59'0 0.0
2014-Jul-28 19:32N 57°36' E 009°59'0 0.0
2014-Jul-28 17:22N 57°36' E 009°59'0 0.0
2014-Jul-28 10:12N 57°36' E 009°59'0 0.0
2014-Jul-28 09:33N 57°36' E 009°59'0 0.0
2014-Jul-28 08:30N 57°36' E 009°59'0 0.0
2014-Jul-27 13:33N 57°36' E 009°59'0 0.0
2014-Jul-27 00:26N 57°36' E 009°59'0 0.0
2014-Jul-26 23:33N 57°36' E 009°59'0 0.0
2014-Jul-26 21:31N 57°36' E 009°59'0 0.0
2014-Jul-26 20:16N 57°36' E 009°59'0 0.0
2014-Jul-26 19:15N 57°36' E 009°59'65 8.0
2014-Jul-26 11:07N 57°50' E 008°00'6 9.5
2014-Jul-26 10:31N 57°52' E 007°50'48 9.7
2014-Jul-26 05:33N 58°09' E 006°25'1010.4
2014-Jul-26 04:33N 58°16' E 006°10'1110.6
2014-Jul-26 03:34N 58°23' E 005°55'10 9.7
2014-Jul-26 02:33N 58°30' E 005°42'1210.6
2014-Jul-26 01:25N 58°40' E 005°30'910.5
2014-Jul-26 00:33N 58°49' E 005°24'1010.5
2014-Jul-25 23:33N 58°59' E 005°19'1010.2
2014-Jul-25 22:33N 59°09' E 005°20'1310.3
2014-Jul-25 21:20N 59°22' E 005°18'  
2014-Jul-22 09:04N 64°50' E 011°12'4 8.6
2014-Jul-22 08:34N 64°53' E 011°19'10 9.5
2014-Jul-22 07:33N 64°60' E 011°36'78 9.2
2014-Jul-21 23:06N 66°14' E 012°36'5 9.7
2014-Jul-21 22:33N 66°16' E 012°24'6 6.1
2014-Jul-21 21:34N 66°22' E 012°23'0 0.0
2014-Jul-21 20:34N 66°22' E 012°23'0 0.0
2014-Jul-21 20:18N 66°22' E 012°23'0 0.0
2014-Jul-21 19:34N 66°22' E 012°23'0 0.0
2014-Jul-21 18:33N 66°22' E 012°23'2 1.9
2014-Jul-21 17:34N 66°23' E 012°27'4 3.7
2014-Jul-21 16:34N 66°26' E 012°28'3 3.1
2014-Jul-21 15:33N 66°23' E 012°28'2 2.4
2014-Jul-21 14:33N 66°22' E 012°23'0 0.0
2014-Jul-21 13:34N 66°22' E 012°23'0 0.0
2014-Jul-21 12:34N 66°22' E 012°23'0 0.0
2014-Jul-21 11:33N 66°22' E 012°23'0 0.0
2014-Jul-21 10:34N 66°22' E 012°23'0 0.0
2014-Jul-21 09:34N 66°22' E 012°23'0 0.0
2014-Jul-21 08:34N 66°22' E 012°23'0 0.0
2014-Jul-21 07:34N 66°22' E 012°23'0 0.0
2014-Jul-21 06:34N 66°22' E 012°23'0 0.0
2014-Jul-21 05:34N 66°22' E 012°23'0 0.2
2014-Jul-21 04:34N 66°22' E 012°23'9 9.1
2014-Jul-21 03:34N 66°26' E 012°43'8 8.4
2014-Jul-21 02:33N 66°32' E 012°59'39 9.7
2014-Jul-20 22:31N 67°04' E 013°54'1010.4
2014-Jul-20 21:34N 67°13' E 014°07'1010.4
2014-Jul-20 20:34N 67°21' E 014°23'1010.2
2014-Jul-20 19:33N 67°31' E 014°30'  
Track history (hours):
 
Tides and Currents Weather Stations Pressure Air Temp Water Temp Dewpoint Dewpoint Depression Visibility Wind Speed Wind Dir Waves Ship Positions

Hordafor III

Last reported at 2014-Jul-30 05:33 UTC. Time now 2014-Jul-31 09:33 UTC.
Position N 57°36' E 009°59'.

Length 50 m; draft 6.2 m.

Type: Ship. MMSI: 258044000.

Date/timePositionNaut miles runAvg speedWind from/ knotsBaromVisibWave heightAir tempDewpointWater temp
2014-Jul-30 05:33N 57°36' E 009°59'0 0.0
2014-Jul-29 04:27N 57°36' E 009°59'0 0.0
2014-Jul-29 03:33N 57°36' E 009°59'0 0.0
2014-Jul-29 02:34N 57°36' E 009°59'0 0.0
2014-Jul-29 01:32N 57°36' E 009°59'0 0.0
2014-Jul-29 00:33N 57°36' E 009°59'0 0.0
2014-Jul-28 23:33N 57°36' E 009°59'0 0.0
2014-Jul-28 22:33N 57°36' E 009°59'0 0.0
2014-Jul-28 21:06N 57°36' E 009°59'0 0.1
2014-Jul-28 20:30N 57°36' E 009°59'0 0.0
2014-Jul-28 19:32N 57°36' E 009°59'0 0.0
2014-Jul-28 17:22N 57°36' E 009°59'0 0.0
2014-Jul-28 10:12N 57°36' E 009°59'0 0.0
2014-Jul-28 09:33N 57°36' E 009°59'0 0.0
2014-Jul-28 08:30N 57°36' E 009°59'0 0.0
2014-Jul-27 13:33N 57°36' E 009°59'0 0.0
2014-Jul-27 00:26N 57°36' E 009°59'0 0.0
2014-Jul-26 23:33N 57°36' E 009°59'0 0.0
2014-Jul-26 21:31N 57°36' E 009°59'0 0.0
2014-Jul-26 20:16N 57°36' E 009°59'0 0.0
2014-Jul-26 19:15N 57°36' E 009°59'65 8.0
2014-Jul-26 11:07N 57°50' E 008°00'6 9.5
2014-Jul-26 10:31N 57°52' E 007°50'48 9.7
2014-Jul-26 05:33N 58°09' E 006°25'1010.4
2014-Jul-26 04:33N 58°16' E 006°10'1110.6
2014-Jul-26 03:34N 58°23' E 005°55'10 9.7
2014-Jul-26 02:33N 58°30' E 005°42'1210.6
2014-Jul-26 01:25N 58°40' E 005°30'910.5
2014-Jul-26 00:33N 58°49' E 005°24'1010.5
2014-Jul-25 23:33N 58°59' E 005°19'1010.2
2014-Jul-25 22:33N 59°09' E 005°20'1310.3
2014-Jul-25 21:20N 59°22' E 005°18'  
2014-Jul-22 09:04N 64°50' E 011°12'4 8.6
2014-Jul-22 08:34N 64°53' E 011°19'10 9.5
2014-Jul-22 07:33N 64°60' E 011°36'78 9.2
2014-Jul-21 23:06N 66°14' E 012°36'5 9.7
2014-Jul-21 22:33N 66°16' E 012°24'6 6.1
2014-Jul-21 21:34N 66°22' E 012°23'0 0.0
2014-Jul-21 20:34N 66°22' E 012°23'0 0.0
2014-Jul-21 20:18N 66°22' E 012°23'0 0.0
2014-Jul-21 19:34N 66°22' E 012°23'0 0.0
2014-Jul-21 18:33N 66°22' E 012°23'2 1.9
2014-Jul-21 17:34N 66°23' E 012°27'4 3.7
2014-Jul-21 16:34N 66°26' E 012°28'3 3.1
2014-Jul-21 15:33N 66°23' E 012°28'2 2.4
2014-Jul-21 14:33N 66°22' E 012°23'0 0.0
2014-Jul-21 13:34N 66°22' E 012°23'0 0.0
2014-Jul-21 12:34N 66°22' E 012°23'0 0.0
2014-Jul-21 11:33N 66°22' E 012°23'0 0.0
2014-Jul-21 10:34N 66°22' E 012°23'0 0.0
2014-Jul-21 09:34N 66°22' E 012°23'0 0.0
2014-Jul-21 08:34N 66°22' E 012°23'0 0.0
2014-Jul-21 07:34N 66°22' E 012°23'0 0.0
2014-Jul-21 06:34N 66°22' E 012°23'0 0.0
2014-Jul-21 05:34N 66°22' E 012°23'0 0.2
2014-Jul-21 04:34N 66°22' E 012°23'9 9.1
2014-Jul-21 03:34N 66°26' E 012°43'8 8.4
2014-Jul-21 02:33N 66°32' E 012°59'39 9.7
2014-Jul-20 22:31N 67°04' E 013°54'1010.4
2014-Jul-20 21:34N 67°13' E 014°07'1010.4
2014-Jul-20 20:34N 67°21' E 014°23'1010.2
2014-Jul-20 19:33N 67°31' E 014°30'  

Dump ship's entire track history